Gypsum, KS (67448)

6:34 AM CST on January 24, 2017 (GMT -0600)
Southeast of Saline School | | Change Station

Elev 1401 ft 38.71 °N, 97.51 °W | Updated 9 seconds ago

Clear
Clear
33.2 °F
Feels Like 33 °F
N
3.0
Wind Variable Wind from North
Gusts 6.0 mph

Today
High -- | Low -- °F
--% Chance of Precip.
Yesterday
High -- | Low -- °F
Precip. -- in
Pressure 29.61 in
Visibility 10.0 miles
Clouds Few 13000 ft
Windchill 33 °F
Dew Point 30 °F
Humidity 87%
Rainfall 0.00 in
Snow Depth Not available.
7:41 AM 5:42 PM
Waning Crescent, 12% visible
METAR KFRI 241158Z AUTO 10007KT 10SM FEW130 02/02 A2960 RMK AO2 SLP027 T00160015 10023 20011 56019
Pressure 29.61 in
Visibility 10.0 miles
Clouds Few 13000 ft
Windchill 33 °F
Dew Point 30 °F
Humidity 87%
Rainfall 0.00 in
Snow Depth Not available.
7:41 AM 5:42 PM
Waning Crescent, 12% visible
METAR KFRI 241158Z AUTO 10007KT 10SM FEW130 02/02 A2960 RMK AO2 SLP027 T00160015 10023 20011 56019

Get Your Daily Forecast Email!

Thanks for signing up!

Be on the lookout for a verification email in your inbox.

You'll start receiving the daily forecast at 8 AM.

×

10-Day Weather Forecast

Almanac

Astronomy

Jan. 24, 2017 Rise Set
Actual Time
Civil Twilight
Nautical Twilight
Astronomical Twilight
Moon
Length of Visible Light
Length of Day
Tomorrow will be .
, % of the Moon is Illuminated

Today's Extremes

State Highs State Lows

Community

WunderPhotos

Upload Photos

1,962,540 photos uploaded!

WunderBlog® & News

Nearby

Air Quality

  Air Quality AQ Index Pollutant
Not available.

Snow Depth

Station Depth Elevation

Earthquake Activity

City Distance Mag. Time & Date
Minimum magnitude displayed is 2.5.

Coastal Water Temperatures

Place Temperature

Stations

Nearby Weather Stations

Station Location Temp. Windchill Dew Point Humidity Wind Precip. Elev Updated Type
                   

Watches & Warnings

There are currently no watches in effect.